createdAt,value
2019-01-29T00:01:40.144Z,7.30
2019-01-29T00:04:11.357Z,8.10
2019-01-29T00:06:40.964Z,7.07
2019-01-29T00:09:13.233Z,7.27
2019-01-29T00:11:45.021Z,7.97
2019-01-29T00:14:14.707Z,6.60
2019-01-29T00:16:46.448Z,7.00
2019-01-29T00:19:16.021Z,7.17
2019-01-29T00:21:48.659Z,6.90
2019-01-29T00:24:17.955Z,6.73
2019-01-29T00:26:51.630Z,6.50
2019-01-29T00:29:28.143Z,6.50
2019-01-29T00:32:03.163Z,7.10
2019-01-29T00:34:32.538Z,6.60
2019-01-29T00:37:01.948Z,5.87
2019-01-29T00:39:33.217Z,8.17
2019-01-29T00:42:02.928Z,6.70
2019-01-29T00:44:35.590Z,7.57
2019-01-29T00:47:08.660Z,7.07
2019-01-29T00:49:40.724Z,6.70
2019-01-29T00:52:11.268Z,7.37
2019-01-29T00:54:43.021Z,8.83
2019-01-29T00:57:16.046Z,8.97
2019-01-29T00:59:46.664Z,8.47
2019-01-29T01:02:18.598Z,8.43
2019-01-29T01:04:49.437Z,8.83
2019-01-29T01:07:22.410Z,9.87
2019-01-29T01:09:57.373Z,8.90
2019-01-29T01:12:26.386Z,9.30
2019-01-29T01:14:56.240Z,9.67
2019-01-29T01:17:27.566Z,10.03
2019-01-29T01:19:57.349Z,9.43
2019-01-29T01:22:26.961Z,7.67
2019-01-29T01:24:56.568Z,7.90
2019-01-29T01:27:33.137Z,8.07
2019-01-29T01:30:02.726Z,7.80
2019-01-29T01:32:32.442Z,7.40
2019-01-29T01:35:02.075Z,7.83
2019-01-29T01:37:31.777Z,8.77
2019-01-29T01:40:02.313Z,8.00
2019-01-29T01:42:32.605Z,8.00
2019-01-29T01:45:01.940Z,7.43
2019-01-29T01:47:31.845Z,8.47
2019-01-29T01:50:19.756Z,8.50
2019-01-29T01:52:49.373Z,8.43
2019-01-29T01:55:18.979Z,8.33
2019-01-29T01:57:49.012Z,9.20
2019-01-29T02:00:21.782Z,10.13
2019-01-29T02:02:51.105Z,10.53
2019-01-29T02:05:22.651Z,9.67
2019-01-29T02:07:54.254Z,13.23
2019-01-29T02:10:30.007Z,11.30
2019-01-29T02:12:59.654Z,11.13
2019-01-29T02:15:29.280Z,11.80
2019-01-29T02:17:59.237Z,9.27
2019-01-29T02:20:30.628Z,9.80
2019-01-29T02:23:07.579Z,10.23
2019-01-29T02:25:31.377Z,8.80
2019-01-29T02:28:01.547Z,8.87
2019-01-29T02:30:32.445Z,9.33
2019-01-29T02:33:01.795Z,9.23
2019-01-29T02:35:31.724Z,9.63
2019-01-29T02:38:01.798Z,8.87
2019-01-29T02:40:31.188Z,9.00
2019-01-29T02:43:00.881Z,7.90
2019-01-29T02:45:30.392Z,8.77
2019-01-29T02:48:00.031Z,8.30
2019-01-29T02:50:29.715Z,8.93
2019-01-29T02:53:01.548Z,8.07
2019-01-29T02:55:34.612Z,10.40
2019-01-29T02:58:06.527Z,7.40
2019-01-29T03:00:39.403Z,8.40
2019-01-29T03:03:09.015Z,7.70
2019-01-29T03:05:39.227Z,7.20
2019-01-29T03:08:13.841Z,8.17
2019-01-29T03:10:43.957Z,8.40
2019-01-29T03:13:13.622Z,7.27
2019-01-29T03:18:21.444Z,8.33
2019-01-29T03:20:51.898Z,7.27
2019-01-29T03:23:27.375Z,7.13
2019-01-29T03:25:53.627Z,9.17
2019-01-29T03:28:30.891Z,8.07
2019-01-29T03:31:01.819Z,8.23
2019-01-29T03:33:31.955Z,7.67
2019-01-29T03:36:02.605Z,9.27
2019-01-29T03:38:38.883Z,7.80
2019-01-29T03:41:09.950Z,6.50
2019-01-29T03:43:39.312Z,9.63
2019-01-29T03:46:09.369Z,6.77
2019-01-29T03:48:38.810Z,7.30
2019-01-29T03:51:11.292Z,6.50
2019-01-29T03:53:41.143Z,6.90
2019-01-29T03:56:11.011Z,6.37
2019-01-29T03:58:42.489Z,7.33
2019-01-29T04:01:11.866Z,8.33
2019-01-29T04:03:43.468Z,6.10
2019-01-29T04:06:13.019Z,6.03
2019-01-29T04:08:44.097Z,6.83
2019-01-29T04:11:13.677Z,6.00
2019-01-29T04:13:46.217Z,6.90
2019-01-29T04:16:16.800Z,6.10
2019-01-29T04:18:47.009Z,6.27
2019-01-29T04:21:16.373Z,6.10
2019-01-29T04:23:47.721Z,6.10
2019-01-29T04:26:17.051Z,5.90
2019-01-29T04:28:46.350Z,7.73
2019-01-29T04:31:18.650Z,7.53
2019-01-29T04:33:47.975Z,9.13
2019-01-29T04:36:17.275Z,7.17
2019-01-29T04:38:46.612Z,7.87
2019-01-29T04:41:16.232Z,7.77
2019-01-29T04:43:49.142Z,10.47
2019-01-29T04:46:18.572Z,12.07
2019-01-29T04:48:48.053Z,8.37
2019-01-29T04:51:17.377Z,7.80
2019-01-29T04:53:57.210Z,9.60
2019-01-29T04:56:21.924Z,10.77
2019-01-29T04:58:51.229Z,10.10
2019-01-29T05:01:23.343Z,9.17
2019-01-29T05:03:52.791Z,9.60
2019-01-29T05:06:22.451Z,10.80
2019-01-29T05:08:53.278Z,10.70
2019-01-29T05:11:22.611Z,9.90
2019-01-29T05:13:53.017Z,11.33
2019-01-29T05:16:24.673Z,10.90
2019-01-29T05:18:55.856Z,8.83
2019-01-29T05:21:27.086Z,8.47
2019-01-29T05:23:56.424Z,10.17
2019-01-29T05:26:25.755Z,12.27
2019-01-29T05:28:55.067Z,8.30
2019-01-29T05:31:24.988Z,8.93
2019-01-29T05:33:54.554Z,10.90
2019-01-29T05:36:26.077Z,6.97
2019-01-29T05:38:59.208Z,7.33
2019-01-29T05:41:29.345Z,7.70
2019-01-29T05:43:58.689Z,5.93
2019-01-29T05:46:28.299Z,9.37
2019-01-29T05:48:57.976Z,7.80
2019-01-29T05:51:27.574Z,7.67
2019-01-29T05:53:58.619Z,7.37
2019-01-29T05:56:28.128Z,7.57
2019-01-29T05:58:58.145Z,7.27
2019-01-29T06:01:31.609Z,10.53
2019-01-29T06:04:02.885Z,8.00
2019-01-29T06:06:33.443Z,6.70
2019-01-29T06:09:04.596Z,7.17
2019-01-29T06:11:35.300Z,7.83
2019-01-29T06:14:06.870Z,8.43
2019-01-29T06:16:40.851Z,6.67
2019-01-29T06:19:10.247Z,8.23
2019-01-29T06:21:39.925Z,5.73
2019-01-29T06:24:15.299Z,6.50
2019-01-29T06:26:45.379Z,6.57
2019-01-29T06:29:14.912Z,6.40
2019-01-29T06:31:44.531Z,7.53
2019-01-29T06:34:13.869Z,6.60
2019-01-29T06:36:43.425Z,9.43
2019-01-29T06:39:15.403Z,7.83
2019-01-29T06:41:45.311Z,6.17
2019-01-29T06:44:15.021Z,7.47
2019-01-29T06:46:44.337Z,7.83
2019-01-29T06:49:15.456Z,8.33
2019-01-29T06:51:45.175Z,8.40
2019-01-29T06:54:14.599Z,8.37
2019-01-29T06:56:44.213Z,9.83
2019-01-29T06:59:13.904Z,7.40
2019-01-29T07:01:43.519Z,5.70
2019-01-29T07:04:14.822Z,11.63
2019-01-29T07:06:44.223Z,8.33
2019-01-29T07:09:14.838Z,5.87
2019-01-29T07:11:46.458Z,10.53
2019-01-29T07:14:16.012Z,7.23
2019-01-29T07:16:47.002Z,8.80
2019-01-29T07:19:19.497Z,7.87
2019-01-29T07:21:48.943Z,8.07
2019-01-29T07:24:20.839Z,7.83
2019-01-29T07:26:50.210Z,6.73
2019-01-29T07:29:20.107Z,8.73
2019-01-29T07:31:50.984Z,8.27
2019-01-29T07:34:22.236Z,9.33
2019-01-29T07:36:51.615Z,9.40
2019-01-29T07:39:21.215Z,8.23
2019-01-29T07:41:53.218Z,8.47
2019-01-29T07:44:22.762Z,9.67
2019-01-29T07:46:55.253Z,8.30
2019-01-29T07:49:28.855Z,7.73
2019-01-29T07:52:21.239Z,7.20
2019-01-29T07:54:51.483Z,7.67
2019-01-29T07:57:21.936Z,8.03
2019-01-29T07:59:51.304Z,6.57
2019-01-29T08:02:20.735Z,9.40
2019-01-29T08:04:50.370Z,9.90
2019-01-29T08:07:19.995Z,8.37
2019-01-29T08:09:50.488Z,9.07
2019-01-29T08:12:21.127Z,9.23
2019-01-29T08:14:50.463Z,10.40
2019-01-29T08:17:19.778Z,7.77
2019-01-29T08:19:49.157Z,10.73
2019-01-29T08:22:19.875Z,10.53
2019-01-29T08:24:52.039Z,8.77
2019-01-29T08:27:25.483Z,11.10
2019-01-29T08:29:54.815Z,10.23
2019-01-29T08:32:26.522Z,8.50
2019-01-29T08:34:56.166Z,8.83
2019-01-29T08:37:27.831Z,9.27
2019-01-29T08:40:00.142Z,7.63
2019-01-29T08:42:29.968Z,10.70
2019-01-29T08:44:59.272Z,8.97
2019-01-29T08:47:29.035Z,10.37
2019-01-29T08:49:58.999Z,8.97
2019-01-29T08:52:28.610Z,9.60
2019-01-29T08:54:58.424Z,9.87
2019-01-29T08:57:31.216Z,8.43
2019-01-29T09:00:00.560Z,9.27
2019-01-29T09:02:30.141Z,10.23
2019-01-29T09:05:02.518Z,12.20
2019-01-29T09:07:32.204Z,10.47
2019-01-29T09:10:01.795Z,9.60
2019-01-29T09:12:31.206Z,9.27
2019-01-29T09:15:00.514Z,8.57
2019-01-29T09:17:33.240Z,10.47
2019-01-29T09:20:03.228Z,81.53
2019-01-29T09:22:34.974Z,28.07
2019-01-29T09:27:53.862Z,9.73
2019-01-29T09:30:23.524Z,9.43
2019-01-29T09:32:53.828Z,9.57
2019-01-29T09:35:26.838Z,9.30
2019-01-29T09:37:57.385Z,10.47
2019-01-29T09:40:31.112Z,9.90
2019-01-29T09:43:04.877Z,8.07
2019-01-29T09:45:40.646Z,9.07
2019-01-29T09:48:10.304Z,10.33
2019-01-29T09:50:40.664Z,8.00
2019-01-29T09:53:10.275Z,10.10
2019-01-29T09:55:39.630Z,7.97
2019-01-29T09:58:08.950Z,10.00
2019-01-29T10:00:39.998Z,8.33
2019-01-29T10:03:09.571Z,8.80
2019-01-29T10:05:38.878Z,8.60
2019-01-29T10:08:11.667Z,10.50
2019-01-29T10:10:41.265Z,9.43
2019-01-29T10:13:12.989Z,9.77
2019-01-29T10:15:42.598Z,9.43
2019-01-29T10:18:12.701Z,10.50
2019-01-29T10:20:43.260Z,7.13
2019-01-29T10:23:12.962Z,7.13
2019-01-29T10:25:42.303Z,9.40
2019-01-29T10:28:11.910Z,8.80
2019-01-29T10:30:41.923Z,9.23
2019-01-29T10:33:14.050Z,8.73
2019-01-29T10:35:43.656Z,7.57
2019-01-29T10:38:13.538Z,7.03
2019-01-29T10:40:43.114Z,7.27
2019-01-29T10:43:12.533Z,9.07
2019-01-29T10:45:41.959Z,7.93
2019-01-29T10:48:14.930Z,8.40
2019-01-29T10:50:44.234Z,8.60
2019-01-29T10:53:13.554Z,7.43
2019-01-29T10:55:47.288Z,8.83
2019-01-29T10:58:14.222Z,9.63
2019-01-29T11:00:49.965Z,8.10
2019-01-29T11:03:19.330Z,10.47
2019-01-29T11:05:48.636Z,8.90
2019-01-29T11:08:18.198Z,7.57
2019-01-29T11:10:47.539Z,7.93
2019-01-29T11:13:17.192Z,8.20
2019-01-29T11:15:46.554Z,10.17
2019-01-29T11:18:15.897Z,7.90
2019-01-29T11:20:45.291Z,6.53
2019-01-29T11:23:14.629Z,8.80
2019-01-29T11:25:44.246Z,7.97
2019-01-29T11:28:13.662Z,9.13
2019-01-29T11:30:42.957Z,7.47
2019-01-29T11:33:12.707Z,6.77
2019-01-29T11:35:43.481Z,8.60
2019-01-29T11:38:12.797Z,8.97
2019-01-29T11:40:46.724Z,11.97
2019-01-29T11:43:16.050Z,7.23
2019-01-29T11:45:52.946Z,8.83
2019-01-29T11:48:24.659Z,7.60
2019-01-29T11:50:54.310Z,6.57
2019-01-29T11:53:26.275Z,9.13
2019-01-29T11:56:04.081Z,7.07
2019-01-29T11:58:27.230Z,7.67
2019-01-29T12:01:00.936Z,7.53
2019-01-29T12:03:30.265Z,7.60
2019-01-29T12:05:59.601Z,9.57
2019-01-29T12:08:33.039Z,8.00
2019-01-29T12:11:06.792Z,7.17
2019-01-29T12:13:36.552Z,7.53
2019-01-29T12:16:06.129Z,6.57
2019-01-29T12:18:38.236Z,7.33
2019-01-29T12:21:11.679Z,9.17
2019-01-29T12:23:40.984Z,7.17
2019-01-29T12:26:13.228Z,8.53
2019-01-29T12:28:44.105Z,10.17
2019-01-29T12:31:13.665Z,7.57
2019-01-29T12:33:43.346Z,6.17
2019-01-29T12:36:12.639Z,7.03
2019-01-29T12:38:42.150Z,8.43
2019-01-29T12:41:11.938Z,7.30
2019-01-29T12:43:42.983Z,9.10
2019-01-29T12:46:15.655Z,7.60
2019-01-29T12:48:48.383Z,8.63
2019-01-29T12:51:20.047Z,7.33
2019-01-29T12:53:50.469Z,8.17
2019-01-29T12:56:21.542Z,6.57
2019-01-29T12:58:51.173Z,9.70
2019-01-29T13:01:24.875Z,9.67
2019-01-29T13:03:54.326Z,8.63
2019-01-29T13:06:27.737Z,10.80
2019-01-29T13:08:59.110Z,7.20
2019-01-29T13:11:28.693Z,10.37
2019-01-29T13:13:58.506Z,7.97
2019-01-29T13:16:27.839Z,7.30
2019-01-29T13:18:57.711Z,10.07
2019-01-29T13:21:27.862Z,9.47
2019-01-29T13:23:57.184Z,7.07
2019-01-29T13:26:30.152Z,7.57
2019-01-29T13:29:00.109Z,5.70
2019-01-29T13:31:30.489Z,7.47
2019-01-29T13:34:00.358Z,6.97
2019-01-29T13:36:29.874Z,7.03
2019-01-29T13:38:59.279Z,5.43
2019-01-29T13:41:28.965Z,8.40
2019-01-29T13:43:58.461Z,7.73
2019-01-29T13:46:28.979Z,7.17
2019-01-29T13:48:58.275Z,7.60
2019-01-29T13:51:27.629Z,6.93
2019-01-29T13:53:59.867Z,6.73
2019-01-29T13:56:29.711Z,7.47
2019-01-29T13:58:59.393Z,7.33
2019-01-29T14:01:29.198Z,8.03
2019-01-29T14:04:06.000Z,7.13
2019-01-29T14:06:29.580Z,7.57
2019-01-29T14:08:59.264Z,8.10
2019-01-29T14:11:28.968Z,7.73
2019-01-29T14:13:58.673Z,6.47
2019-01-29T14:16:28.371Z,7.33
2019-01-29T14:18:57.778Z,8.00
2019-01-29T14:21:27.503Z,5.40
2019-01-29T14:23:57.610Z,6.77
2019-01-29T14:26:29.709Z,8.30
2019-01-29T14:29:01.973Z,8.40
2019-01-29T14:31:31.395Z,6.03
2019-01-29T14:34:01.090Z,6.87
2019-01-29T14:36:30.760Z,8.67
2019-01-29T14:39:18.166Z,9.30
2019-01-29T14:41:47.875Z,8.77
2019-01-29T14:44:17.498Z,7.47
2019-01-29T14:46:47.107Z,11.50
2019-01-29T14:49:16.714Z,8.57
2019-01-29T14:51:46.452Z,6.07
2019-01-29T14:54:15.770Z,6.50
2019-01-29T14:56:45.364Z,6.30
2019-01-29T14:59:14.695Z,7.70
2019-01-29T15:01:44.122Z,8.17
2019-01-29T15:04:13.726Z,6.53
2019-01-29T15:06:43.477Z,7.23
2019-01-29T15:09:12.964Z,5.67
2019-01-29T15:11:42.580Z,9.23
2019-01-29T15:14:12.320Z,6.27
2019-01-29T15:16:44.263Z,7.97
2019-01-29T15:19:14.270Z,8.13
2019-01-29T15:21:43.872Z,5.87
2019-01-29T15:24:13.710Z,7.20
2019-01-29T15:26:43.046Z,8.27
2019-01-29T15:29:12.629Z,9.00
2019-01-29T15:31:42.307Z,11.17
2019-01-29T15:34:12.019Z,9.77
2019-01-29T15:36:41.331Z,7.27
2019-01-29T15:39:10.659Z,9.37
2019-01-29T15:41:40.441Z,8.27
2019-01-29T15:44:09.771Z,13.10
2019-01-29T15:46:39.076Z,11.63
2019-01-29T15:49:08.484Z,11.33
2019-01-29T15:51:37.957Z,8.93
2019-01-29T15:54:07.432Z,9.50
2019-01-29T15:56:37.029Z,7.23
2019-01-29T15:59:06.665Z,9.40
2019-01-29T16:01:36.370Z,6.80
2019-01-29T16:04:05.718Z,8.83
2019-01-29T16:06:35.296Z,6.87
2019-01-29T16:09:07.201Z,7.10
2019-01-29T16:11:36.943Z,7.83
2019-01-29T16:14:06.275Z,8.40
2019-01-29T16:16:35.579Z,9.93
2019-01-29T16:19:04.943Z,10.47
2019-01-29T16:21:34.580Z,10.97
2019-01-29T16:24:05.780Z,8.33
2019-01-29T16:26:35.545Z,11.17
2019-01-29T16:29:05.283Z,9.90
2019-01-29T16:31:35.137Z,12.00
2019-01-29T16:34:04.911Z,11.13
2019-01-29T16:36:34.227Z,10.80
2019-01-29T16:39:05.213Z,15.13
2019-01-29T16:41:34.718Z,13.43
2019-01-29T16:44:06.047Z,11.83
2019-01-29T16:46:35.388Z,11.67
2019-01-29T16:49:05.253Z,11.77
2019-01-29T16:51:41.933Z,9.50
2019-01-29T16:54:05.893Z,8.10
2019-01-29T16:56:35.674Z,13.80
2019-01-29T16:59:05.421Z,12.23
2019-01-29T17:01:35.142Z,12.67
2019-01-29T17:04:06.375Z,14.27
2019-01-29T17:06:36.098Z,12.10
2019-01-29T17:09:08.720Z,11.87
2019-01-29T17:11:38.459Z,16.23
2019-01-29T17:14:07.879Z,10.57
2019-01-29T17:16:37.501Z,10.43
2019-01-29T17:19:06.939Z,15.37
2019-01-29T17:21:36.281Z,13.37
2019-01-29T17:24:05.927Z,12.30
2019-01-29T17:26:35.726Z,12.93
2019-01-29T17:29:05.052Z,11.83
2019-01-29T17:31:34.466Z,13.47
2019-01-29T17:34:03.824Z,12.17
2019-01-29T17:36:34.942Z,11.67
2019-01-29T17:39:07.182Z,14.37
2019-01-29T17:41:36.553Z,12.83
2019-01-29T17:44:06.243Z,13.43
2019-01-29T17:46:35.942Z,13.73
2019-01-29T17:49:05.444Z,14.07
2019-01-29T17:51:35.176Z,12.80
2019-01-29T17:54:06.152Z,13.80
2019-01-29T17:56:35.835Z,11.93
2019-01-29T17:59:05.431Z,12.97
2019-01-29T18:01:35.347Z,13.27
2019-01-29T18:04:06.333Z,14.13
2019-01-29T18:06:35.993Z,16.70
2019-01-29T18:09:09.685Z,11.30
2019-01-29T18:11:39.267Z,11.60
2019-01-29T18:14:09.400Z,14.63
2019-01-29T18:16:39.619Z,13.80
2019-01-29T18:19:09.361Z,14.27
2019-01-29T18:21:56.303Z,13.23
2019-01-29T18:24:17.565Z,11.80
2019-01-29T18:26:47.309Z,11.63
2019-01-29T18:29:16.918Z,11.20
2019-01-29T18:31:46.295Z,47.73
2019-01-29T18:34:18.071Z,100.90
2019-01-29T18:36:47.574Z,60.23
2019-01-29T18:39:17.278Z,12.43
2019-01-29T18:41:47.552Z,13.67
2019-01-29T18:44:17.248Z,12.87
2019-01-29T18:46:46.915Z,14.43
2019-01-29T18:49:16.555Z,16.60
2019-01-29T18:51:46.254Z,14.33
2019-01-29T18:54:15.944Z,16.87
2019-01-29T18:56:45.663Z,18.23
2019-01-29T18:59:15.302Z,16.73
2019-01-29T19:01:44.865Z,20.40
2019-01-29T19:04:14.596Z,14.57
2019-01-29T19:06:44.337Z,14.37
2019-01-29T19:09:13.723Z,18.97
2019-01-29T19:11:44.090Z,16.40
2019-01-29T19:14:13.742Z,18.67
2019-01-29T19:16:43.451Z,22.93
2019-01-29T19:19:14.748Z,18.97
2019-01-29T19:21:44.489Z,15.00
2019-01-29T19:24:14.130Z,16.67
2019-01-29T19:26:43.809Z,18.33
2019-01-29T19:29:14.155Z,18.33
2019-01-29T19:31:43.893Z,18.33
2019-01-29T19:34:13.544Z,15.50
2019-01-29T19:36:43.276Z,18.17
2019-01-29T19:39:12.896Z,16.63
2019-01-29T19:41:42.597Z,19.10
2019-01-29T19:44:11.922Z,19.63
2019-01-29T19:46:41.540Z,21.40
2019-01-29T19:49:11.247Z,18.27
2019-01-29T19:51:41.188Z,19.20
2019-01-29T19:57:01.200Z,19.93
2019-01-29T19:59:31.446Z,22.33
2019-01-29T20:02:01.249Z,23.80
2019-01-29T20:04:30.863Z,22.20
2019-01-29T20:07:00.472Z,15.37
2019-01-29T20:09:29.863Z,17.07
2019-01-29T20:11:59.502Z,16.23
2019-01-29T20:14:29.106Z,15.83
2019-01-29T20:16:58.690Z,13.87
2019-01-29T20:19:28.526Z,14.83
2019-01-29T20:21:58.148Z,16.83
2019-01-29T20:24:27.486Z,15.23
2019-01-29T20:26:57.070Z,15.70
2019-01-29T20:29:26.747Z,18.60
2019-01-29T20:31:56.046Z,13.80
2019-01-29T20:34:25.702Z,15.43
2019-01-29T20:36:55.266Z,14.10
2019-01-29T20:39:34.475Z,14.37
2019-01-29T20:41:56.031Z,17.10
2019-01-29T20:44:25.436Z,14.63
2019-01-29T20:46:55.021Z,13.83
2019-01-29T20:49:24.617Z,11.87
2019-01-29T20:51:54.190Z,12.77
2019-01-29T20:54:23.569Z,11.23
2019-01-29T20:56:53.184Z,14.87
2019-01-29T20:59:22.778Z,10.77
2019-01-29T21:01:52.106Z,11.43
2019-01-29T21:04:21.752Z,12.07
2019-01-29T21:06:51.126Z,12.10
2019-01-29T21:09:20.720Z,9.97
2019-01-29T21:11:50.305Z,10.93
2019-01-29T21:14:19.921Z,11.23
2019-01-29T21:16:49.259Z,12.60
2019-01-29T21:19:18.581Z,12.17
2019-01-29T21:21:48.203Z,12.37
2019-01-29T21:24:17.519Z,11.93
2019-01-29T21:26:46.854Z,11.33
2019-01-29T21:29:16.460Z,11.47
2019-01-29T21:31:45.845Z,10.73
2019-01-29T21:34:15.173Z,11.27
2019-01-29T21:36:44.805Z,11.17
2019-01-29T21:39:14.395Z,12.70
2019-01-29T21:41:44.491Z,10.87
2019-01-29T21:44:14.333Z,13.07
2019-01-29T21:46:44.117Z,11.33
2019-01-29T21:49:14.088Z,13.63
2019-01-29T21:51:43.603Z,13.83
2019-01-29T21:54:12.985Z,15.73
2019-01-29T21:56:42.567Z,16.30
2019-01-29T21:59:13.427Z,15.67
2019-01-29T22:01:43.121Z,14.00
2019-01-29T22:04:12.463Z,12.93
2019-01-29T22:06:41.814Z,14.23
2019-01-29T22:09:11.402Z,17.17
2019-01-29T22:11:41.024Z,16.73
2019-01-29T22:14:10.653Z,15.33
2019-01-29T22:16:40.330Z,15.73
2019-01-29T22:19:10.162Z,15.33
2019-01-29T22:21:39.771Z,17.93
2019-01-29T22:24:09.392Z,15.57
2019-01-29T22:26:38.718Z,18.43
2019-01-29T22:29:08.413Z,19.30
2019-01-29T22:31:38.020Z,16.50
2019-01-29T22:34:07.714Z,19.47
2019-01-29T22:36:37.037Z,19.87
2019-01-29T22:39:10.843Z,18.93
2019-01-29T22:41:40.544Z,16.00
2019-01-29T22:44:10.241Z,17.23
2019-01-29T22:46:39.850Z,18.80
2019-01-29T22:49:09.560Z,20.57
2019-01-29T22:51:39.177Z,16.27
2019-01-29T22:54:10.824Z,15.57
2019-01-29T22:56:40.120Z,20.20
2019-01-29T22:59:09.730Z,18.57
2019-01-29T23:01:39.355Z,20.83
2019-01-29T23:04:08.968Z,18.93
2019-01-29T23:06:53.056Z,18.00
2019-01-29T23:09:24.281Z,18.70
2019-01-29T23:11:53.618Z,18.03
2019-01-29T23:14:29.094Z,17.87
2019-01-29T23:16:58.825Z,19.93
2019-01-29T23:19:28.148Z,20.93
2019-01-29T23:21:59.558Z,19.20
2019-01-29T23:24:29.163Z,20.60
2019-01-29T23:26:58.492Z,19.60
2019-01-29T23:29:30.608Z,22.53
2019-01-29T23:32:00.356Z,18.53
2019-01-29T23:34:29.984Z,18.93
2019-01-29T23:36:59.652Z,15.73
2019-01-29T23:39:32.437Z,20.67
2019-01-29T23:42:02.151Z,19.93
2019-01-29T23:44:31.856Z,22.93
2019-01-29T23:47:01.241Z,23.90
2019-01-29T23:49:32.390Z,18.57
2019-01-29T23:52:04.079Z,18.67
2019-01-29T23:54:33.843Z,19.10
2019-01-29T23:57:03.374Z,19.47
2019-01-29T23:59:33.761Z,19.60
